createdAt,value
2024-03-02T00:00:28.855Z,2.51
2024-03-02T00:03:22.027Z,2.87
2024-03-02T00:05:54.441Z,2.42
2024-03-02T00:08:27.385Z,2.51
2024-03-02T00:11:04.226Z,3.06
2024-03-02T00:13:36.331Z,2.35
2024-03-02T00:16:07.001Z,3.10
2024-03-02T00:18:40.424Z,2.49
2024-03-02T00:21:12.189Z,2.44
2024-03-02T00:23:43.038Z,2.91
2024-03-02T00:26:14.846Z,2.37
2024-03-02T00:28:46.542Z,2.51
2024-03-02T00:31:34.298Z,2.23
2024-03-02T00:34:08.950Z,2.10
2024-03-02T00:36:39.557Z,1.98
2024-03-02T00:39:09.841Z,2.57
2024-03-02T00:41:45.988Z,2.66
2024-03-02T00:44:17.834Z,2.15
2024-03-02T00:46:48.692Z,3.08
2024-03-02T00:49:26.997Z,2.46
2024-03-02T00:51:58.485Z,1.92
2024-03-02T00:54:30.277Z,1.66
2024-03-02T00:57:00.960Z,1.21
2024-03-02T00:59:34.834Z,1.08
2024-03-02T01:02:05.793Z,1.33
2024-03-02T01:04:35.948Z,0.72
2024-03-02T01:07:06.379Z,1.27
2024-03-02T01:09:42.804Z,0.83
2024-03-02T01:12:13.177Z,0.80
2024-03-02T01:14:44.439Z,0.59
2024-03-02T01:17:15.127Z,0.72
2024-03-02T01:19:45.701Z,0.79
2024-03-02T01:22:15.879Z,0.60
2024-03-02T01:24:46.890Z,0.92
2024-03-02T01:27:37.006Z,0.87
2024-03-02T01:30:08.216Z,0.72
2024-03-02T01:32:39.928Z,0.71
2024-03-02T01:35:10.544Z,0.59
2024-03-02T01:37:40.929Z,0.69
2024-03-02T01:40:12.358Z,0.83
2024-03-02T01:42:43.959Z,0.75
2024-03-02T01:45:14.517Z,0.86
2024-03-02T01:47:44.856Z,0.96
2024-03-02T01:50:15.835Z,0.65
2024-03-02T01:52:47.504Z,0.71
2024-03-02T01:55:17.987Z,0.55
2024-03-02T01:57:49.232Z,0.84
2024-03-02T02:00:19.973Z,0.96
2024-03-02T02:02:56.349Z,0.70
2024-03-02T02:05:27.547Z,0.82
2024-03-02T02:07:59.725Z,0.97
2024-03-02T02:10:29.943Z,0.81
2024-03-02T02:13:00.179Z,0.70
2024-03-02T02:15:32.438Z,1.04
2024-03-02T02:18:03.300Z,0.87
2024-03-02T02:20:33.557Z,0.68
2024-03-02T02:23:09.006Z,0.92
2024-03-02T02:25:39.206Z,0.98
2024-03-02T02:28:09.386Z,0.86
2024-03-02T02:31:02.117Z,1.35
2024-03-02T02:33:32.557Z,0.80
2024-03-02T02:36:03.615Z,0.94
2024-03-02T02:38:39.148Z,0.75
2024-03-02T02:41:09.501Z,0.99
2024-03-02T02:43:41.068Z,1.10
2024-03-02T02:46:11.286Z,0.87
2024-03-02T02:48:41.568Z,1.19
2024-03-02T02:51:11.761Z,0.97
2024-03-02T02:53:41.956Z,1.03
2024-03-02T02:56:12.445Z,0.75
2024-03-02T02:59:06.694Z,0.74
2024-03-02T03:01:37.115Z,0.70
2024-03-02T03:04:07.312Z,0.76
2024-03-02T03:06:37.752Z,0.90
2024-03-02T03:09:07.928Z,0.61
2024-03-02T03:11:38.139Z,0.70
2024-03-02T03:14:08.314Z,0.61
2024-03-02T03:16:38.431Z,0.63
2024-03-02T03:19:08.569Z,0.75
2024-03-02T03:21:38.835Z,0.75
2024-03-02T03:24:09.331Z,0.80
2024-03-02T03:26:39.504Z,0.67
2024-03-02T03:29:09.910Z,0.65
2024-03-02T03:31:40.101Z,0.89
2024-03-02T03:34:19.355Z,0.66
2024-03-02T03:36:49.963Z,0.60
2024-03-02T03:39:20.402Z,0.63
2024-03-02T03:41:50.599Z,0.67
2024-03-02T03:44:20.983Z,0.88
2024-03-02T03:46:51.142Z,0.62
2024-03-02T03:49:21.372Z,0.48
2024-03-02T03:51:51.716Z,0.74
2024-03-02T03:54:23.185Z,0.53
2024-03-02T03:56:55.593Z,0.91
2024-03-02T03:59:26.193Z,0.78
2024-03-02T04:01:57.127Z,1.04
2024-03-02T04:04:48.082Z,0.75
2024-03-02T04:07:18.711Z,0.81
2024-03-02T04:09:51.398Z,0.76
2024-03-02T04:12:21.529Z,0.53
2024-03-02T04:14:52.452Z,1.18
2024-03-02T04:17:24.758Z,0.92
2024-03-02T04:19:55.471Z,0.84
2024-03-02T04:22:26.144Z,0.70
2024-03-02T04:24:58.052Z,0.70
2024-03-02T04:27:28.283Z,0.95
2024-03-02T04:29:58.475Z,1.18
2024-03-02T04:32:29.450Z,0.70
2024-03-02T04:35:00.249Z,0.73
2024-03-02T04:40:09.686Z,1.11
2024-03-02T04:42:39.986Z,0.94
2024-03-02T04:45:10.508Z,0.75
2024-03-02T04:47:40.646Z,0.81
2024-03-02T04:50:11.582Z,0.83
2024-03-02T04:52:41.769Z,0.81
2024-03-02T04:55:26.208Z,0.85
2024-03-02T04:57:58.831Z,0.86
2024-03-02T05:00:29.082Z,0.75
2024-03-02T05:02:59.242Z,0.70
2024-03-02T05:05:45.803Z,0.63
2024-03-02T05:08:17.444Z,0.69
2024-03-02T05:10:48.591Z,0.61
2024-03-02T05:13:22.399Z,0.76
2024-03-02T05:15:59.079Z,0.74
2024-03-02T05:18:29.275Z,0.56
2024-03-02T05:20:59.509Z,0.74
2024-03-02T05:23:29.720Z,0.67
2024-03-02T05:26:00.444Z,0.70
2024-03-02T05:28:30.611Z,0.97
2024-03-02T05:31:01.178Z,0.77
2024-03-02T05:33:57.306Z,0.68
2024-03-02T05:36:28.439Z,0.68
2024-03-02T05:38:58.583Z,0.98
2024-03-02T05:41:28.762Z,0.77
2024-03-02T05:43:58.943Z,0.83
2024-03-02T05:46:29.237Z,1.13
2024-03-02T05:48:59.474Z,1.00
2024-03-02T05:51:30.088Z,0.67
2024-03-02T05:54:00.464Z,0.83
2024-03-02T05:56:30.656Z,0.80
2024-03-02T05:59:09.502Z,0.92
2024-03-02T06:02:00.682Z,0.85
2024-03-02T06:04:30.843Z,0.80
2024-03-02T06:07:01.146Z,1.31
2024-03-02T06:09:31.385Z,1.02
2024-03-02T06:12:01.713Z,0.96
2024-03-02T06:14:32.159Z,1.13
2024-03-02T06:17:02.329Z,0.86
2024-03-02T06:19:32.540Z,1.09
2024-03-02T06:22:03.027Z,1.06
2024-03-02T06:24:33.610Z,0.94
2024-03-02T06:27:04.160Z,1.08
2024-03-02T06:29:37.260Z,1.00
2024-03-02T06:32:07.566Z,1.28
2024-03-02T06:34:37.946Z,1.27
2024-03-02T06:37:17.975Z,1.12
2024-03-02T06:39:48.694Z,0.87
2024-03-02T06:42:18.942Z,1.07
2024-03-02T06:44:49.183Z,1.05
2024-03-02T06:47:21.629Z,1.35
2024-03-02T06:49:56.796Z,1.00
2024-03-02T06:52:27.675Z,0.86
2024-03-02T06:54:58.298Z,1.00
2024-03-02T06:57:28.581Z,1.19
2024-03-02T07:00:00.162Z,1.06
2024-03-02T07:02:30.547Z,1.13
2024-03-02T07:05:15.044Z,0.80
2024-03-02T07:07:45.479Z,0.90
2024-03-02T07:10:15.703Z,1.26
2024-03-02T07:12:49.004Z,1.20
2024-03-02T07:15:28.322Z,1.38
2024-03-02T07:17:58.821Z,1.03
2024-03-02T07:20:29.308Z,0.86
2024-03-02T07:22:59.574Z,1.05
2024-03-02T07:28:04.123Z,0.82
2024-03-02T07:30:35.110Z,0.98
2024-03-02T07:33:33.383Z,1.06
2024-03-02T07:36:06.472Z,1.10
2024-03-02T07:38:53.275Z,0.83
2024-03-02T07:41:23.749Z,0.64
2024-03-02T07:43:55.345Z,0.97
2024-03-02T07:46:26.388Z,1.01
2024-03-02T07:49:43.626Z,0.95
2024-03-02T07:52:14.383Z,0.87
2024-03-02T07:54:58.079Z,1.16
2024-03-02T07:57:28.625Z,1.30
2024-03-02T08:00:00.911Z,0.85
2024-03-02T08:02:43.660Z,1.25
2024-03-02T08:05:14.489Z,0.74
2024-03-02T08:07:47.564Z,1.06
2024-03-02T08:10:17.777Z,1.08
2024-03-02T08:12:48.045Z,1.21
2024-03-02T08:15:47.463Z,1.25
2024-03-02T08:18:20.526Z,1.16
2024-03-02T08:20:51.054Z,1.24
2024-03-02T08:23:21.691Z,1.12
2024-03-02T08:26:01.299Z,1.13
2024-03-02T08:28:32.932Z,1.27
2024-03-02T08:31:03.722Z,1.53
2024-03-02T08:33:36.188Z,1.20
2024-03-02T08:36:08.848Z,1.48
2024-03-02T08:39:10.221Z,1.14
2024-03-02T08:41:47.963Z,1.10
2024-03-02T08:44:20.179Z,1.19
2024-03-02T08:46:51.698Z,1.07
2024-03-02T08:49:27.218Z,1.35
2024-03-02T08:51:57.687Z,1.26
2024-03-02T08:54:27.916Z,1.81
2024-03-02T08:56:58.165Z,1.64
2024-03-02T08:59:30.119Z,1.62
2024-03-02T09:02:01.983Z,1.40
2024-03-02T09:04:58.514Z,1.20
2024-03-02T09:07:30.850Z,0.99
2024-03-02T09:10:02.726Z,1.37
2024-03-02T09:12:34.033Z,1.37
2024-03-02T09:16:05.527Z,1.25
2024-03-02T09:19:02.804Z,1.27
2024-03-02T09:21:33.903Z,1.74
2024-03-02T09:24:05.165Z,1.03
2024-03-02T09:26:35.746Z,1.57
2024-03-02T09:29:06.489Z,1.26
2024-03-02T09:31:42.803Z,1.74
2024-03-02T09:34:13.430Z,2.49
2024-03-02T09:36:43.571Z,1.79
2024-03-02T09:39:13.822Z,1.75
2024-03-02T09:41:44.030Z,1.96
2024-03-02T09:44:14.469Z,1.95
2024-03-02T09:47:03.500Z,2.15
2024-03-02T09:49:33.690Z,1.53
2024-03-02T09:52:05.721Z,2.02
2024-03-02T09:54:36.312Z,1.94
2024-03-02T09:57:08.456Z,1.80
2024-03-02T09:59:38.794Z,1.56
2024-03-02T10:02:08.918Z,2.16
2024-03-02T10:04:39.103Z,2.51
2024-03-02T10:07:13.566Z,2.00
2024-03-02T10:09:48.894Z,1.57
2024-03-02T10:12:20.608Z,1.82
2024-03-02T10:15:14.937Z,1.91
2024-03-02T10:17:45.132Z,2.00
2024-03-02T10:20:26.776Z,1.91
2024-03-02T10:23:12.788Z,2.02
2024-03-02T10:25:51.773Z,2.21
2024-03-02T10:28:29.697Z,1.44
2024-03-02T10:31:00.894Z,1.93
2024-03-02T10:33:31.532Z,2.29
2024-03-02T10:36:21.737Z,1.94
2024-03-02T10:38:56.712Z,1.67
2024-03-02T10:41:29.168Z,1.72
2024-03-02T10:44:00.727Z,2.04
2024-03-02T10:46:32.527Z,1.44
2024-03-02T10:49:08.069Z,1.72
2024-03-02T10:51:39.331Z,1.68
2024-03-02T10:54:10.166Z,1.61
2024-03-02T10:56:46.621Z,1.81
2024-03-02T10:59:32.715Z,1.45
2024-03-02T11:02:30.163Z,1.50
2024-03-02T11:11:44.085Z,1.02
2024-03-02T11:14:44.500Z,1.44
2024-03-02T11:17:39.277Z,1.38
2024-03-02T11:20:30.112Z,1.72
2024-03-02T11:23:00.371Z,1.62
2024-03-02T11:25:58.562Z,1.09
2024-03-02T11:28:39.952Z,1.91
2024-03-02T11:37:49.097Z,1.26
2024-03-02T11:40:44.028Z,1.70
2024-03-02T11:43:33.907Z,1.30
2024-03-02T11:49:17.821Z,1.30
2024-03-02T11:52:04.627Z,1.53
2024-03-02T11:54:36.727Z,1.42
2024-03-02T11:57:10.259Z,1.70
2024-03-02T11:59:41.850Z,1.28
2024-03-02T12:02:23.254Z,1.47
2024-03-02T12:04:53.830Z,1.28
2024-03-02T12:11:04.429Z,1.58
2024-03-02T12:13:35.777Z,1.36
2024-03-02T12:16:07.796Z,1.15
2024-03-02T12:18:39.365Z,2.08
2024-03-02T12:21:12.448Z,1.57
2024-03-02T12:23:56.935Z,1.24
2024-03-02T12:26:40.507Z,1.62
2024-03-02T12:29:14.807Z,1.57
2024-03-02T12:31:48.562Z,1.43
2024-03-02T12:34:22.745Z,1.21
2024-03-02T12:36:55.153Z,1.40
2024-03-02T12:39:25.637Z,1.52
2024-03-02T12:41:56.566Z,1.41
2024-03-02T12:44:26.739Z,1.16
2024-03-02T12:47:06.051Z,1.84
2024-03-02T12:49:47.240Z,2.24
2024-03-02T12:52:20.270Z,1.35
2024-03-02T12:54:51.632Z,1.93
2024-03-02T12:57:23.969Z,1.53
2024-03-02T13:00:14.229Z,1.32
2024-03-02T13:02:50.273Z,1.87
2024-03-02T13:05:21.470Z,1.57
2024-03-02T13:07:53.875Z,1.57
2024-03-02T13:10:25.126Z,1.67
2024-03-02T13:13:07.484Z,1.84
2024-03-02T13:15:41.225Z,1.96
2024-03-02T13:18:13.283Z,2.68
2024-03-02T13:20:43.515Z,1.70
2024-03-02T13:23:13.779Z,1.84
2024-03-02T13:25:48.926Z,2.13
2024-03-02T13:28:19.860Z,1.63
2024-03-02T13:30:50.904Z,1.69
2024-03-02T13:33:23.808Z,2.53
2024-03-02T13:35:57.482Z,2.16
2024-03-02T13:38:28.687Z,1.78
2024-03-02T13:41:02.022Z,2.39
2024-03-02T13:43:45.677Z,1.92
2024-03-02T13:46:26.171Z,2.35
2024-03-02T13:49:00.226Z,1.72
2024-03-02T13:51:34.650Z,1.99
2024-03-02T13:54:07.945Z,2.09
2024-03-02T13:56:40.560Z,1.95
2024-03-02T13:59:11.556Z,2.17
2024-03-02T14:01:42.254Z,2.46
2024-03-02T14:04:12.562Z,2.22
2024-03-02T14:06:44.727Z,2.23
2024-03-02T14:10:01.960Z,2.04
2024-03-02T14:12:32.878Z,2.37
2024-03-02T14:15:04.461Z,2.39
2024-03-02T14:17:37.792Z,2.17
2024-03-02T14:20:12.513Z,1.85
2024-03-02T14:22:42.846Z,2.14
2024-03-02T14:25:15.726Z,2.22
2024-03-02T14:28:07.632Z,1.73
2024-03-02T14:30:42.458Z,2.47
2024-03-02T14:33:14.990Z,2.19
2024-03-02T14:35:47.787Z,3.55
2024-03-02T14:38:18.045Z,2.20
2024-03-02T14:40:48.271Z,4.19
2024-03-02T14:43:18.990Z,2.15
2024-03-02T14:45:49.988Z,1.62
2024-03-02T14:48:21.588Z,1.49
2024-03-02T14:50:54.057Z,2.13
2024-03-02T14:53:24.428Z,2.47
2024-03-02T14:55:56.849Z,1.73
2024-03-02T14:58:27.910Z,2.54
2024-03-02T15:00:58.374Z,1.84
2024-03-02T15:03:42.373Z,2.48
2024-03-02T15:06:12.717Z,1.94
2024-03-02T15:08:47.758Z,1.79
2024-03-02T15:11:18.847Z,1.78
2024-03-02T15:14:02.258Z,1.57
2024-03-02T15:16:33.274Z,1.77
2024-03-02T15:19:04.019Z,1.69
2024-03-02T15:21:34.275Z,1.75
2024-03-02T15:24:05.059Z,1.39
2024-03-02T15:26:35.178Z,1.61
2024-03-02T15:29:05.814Z,1.59
2024-03-02T15:31:49.008Z,1.69
2024-03-02T15:34:19.897Z,1.51
2024-03-02T15:36:50.231Z,1.33
2024-03-02T15:39:22.924Z,1.60
2024-03-02T15:41:54.488Z,1.43
2024-03-02T15:44:24.693Z,1.92
2024-03-02T15:46:56.010Z,1.42
2024-03-02T15:49:26.445Z,1.61
2024-03-02T15:51:57.191Z,1.86
2024-03-02T15:54:27.429Z,2.27
2024-03-02T15:56:57.628Z,2.31
2024-03-02T16:00:04.305Z,2.12
2024-03-02T16:02:40.958Z,1.98
2024-03-02T16:05:11.174Z,1.33
2024-03-02T16:07:42.008Z,2.06
2024-03-02T16:10:14.666Z,2.00
2024-03-02T16:12:45.080Z,1.94
2024-03-02T16:15:15.644Z,2.53
2024-03-02T16:17:45.824Z,1.90
2024-03-02T16:20:16.378Z,1.99
2024-03-02T16:22:46.584Z,2.06
2024-03-02T16:25:16.808Z,2.06
2024-03-02T16:28:06.682Z,1.88
2024-03-02T16:30:38.482Z,2.12
2024-03-02T16:33:08.728Z,2.84
2024-03-02T16:35:38.956Z,3.16
2024-03-02T16:38:09.716Z,2.75
2024-03-02T16:40:40.110Z,5.46
2024-03-02T16:43:14.174Z,4.27
2024-03-02T16:45:48.452Z,3.38
2024-03-02T16:48:23.321Z,3.14
2024-03-02T16:50:55.175Z,3.06
2024-03-02T16:53:25.754Z,3.20
2024-03-02T16:56:33.906Z,2.91
2024-03-02T16:59:08.490Z,2.84
2024-03-02T17:01:47.704Z,3.04
2024-03-02T17:04:19.265Z,4.06
2024-03-02T17:07:06.809Z,3.45
2024-03-02T17:09:39.357Z,4.70
2024-03-02T17:12:10.306Z,4.91
2024-03-02T17:14:46.972Z,5.26
2024-03-02T17:20:12.914Z,4.35
2024-03-02T17:22:43.921Z,4.18
2024-03-02T17:25:14.198Z,4.46
2024-03-02T17:27:44.581Z,4.19
2024-03-02T17:30:15.606Z,4.09
2024-03-02T17:32:46.213Z,3.32
2024-03-02T17:35:16.448Z,3.78
2024-03-02T17:37:47.637Z,3.27
2024-03-02T17:43:10.123Z,4.30
2024-03-02T17:45:41.123Z,4.84
2024-03-02T17:48:15.343Z,4.93
2024-03-02T17:50:46.081Z,4.48
2024-03-02T17:53:16.348Z,3.82
2024-03-02T17:55:47.293Z,4.04
2024-03-02T17:58:17.716Z,4.43
2024-03-02T18:00:57.825Z,5.06
2024-03-02T18:03:43.585Z,4.56
2024-03-02T18:06:35.849Z,4.58
2024-03-02T18:09:08.440Z,4.02
2024-03-02T18:11:46.761Z,4.55
2024-03-02T18:14:17.299Z,3.92
2024-03-02T18:17:01.275Z,3.64
2024-03-02T18:19:37.347Z,3.38
2024-03-02T18:22:08.252Z,3.56
2024-03-02T18:24:39.922Z,4.22
2024-03-02T18:27:46.157Z,4.89
2024-03-02T18:30:16.608Z,4.38
2024-03-02T18:32:47.712Z,4.35
2024-03-02T18:35:23.599Z,4.93
2024-03-02T18:37:54.662Z,6.06
2024-03-02T18:40:25.525Z,5.02
2024-03-02T18:42:56.080Z,4.07
2024-03-02T18:45:28.378Z,4.14
2024-03-02T18:47:59.965Z,4.70
2024-03-02T18:50:32.331Z,4.80
2024-03-02T18:53:02.975Z,3.22
2024-03-02T18:55:33.188Z,3.92
2024-03-02T18:58:04.929Z,4.61
2024-03-02T19:00:35.390Z,4.43
2024-03-02T19:03:07.168Z,3.96
2024-03-02T19:05:38.883Z,4.21
2024-03-02T19:08:09.430Z,4.06
2024-03-02T19:10:39.762Z,4.17
2024-03-02T19:13:10.045Z,3.46
2024-03-02T19:15:40.339Z,4.65
2024-03-02T19:18:10.615Z,4.46
2024-03-02T19:20:43.735Z,3.84
2024-03-02T19:23:21.511Z,5.68
2024-03-02T19:25:56.302Z,4.37
2024-03-02T19:28:26.867Z,4.84
2024-03-02T19:30:57.258Z,5.39
2024-03-02T19:33:27.603Z,4.87
2024-03-02T19:35:57.989Z,6.45
2024-03-02T19:38:28.516Z,5.29
2024-03-02T19:40:58.699Z,4.69
2024-03-02T19:43:28.995Z,4.53
2024-03-02T19:45:59.260Z,5.65
2024-03-02T19:48:29.574Z,4.86
2024-03-02T19:50:59.862Z,4.67
2024-03-02T19:53:30.057Z,5.46
2024-03-02T19:56:00.288Z,5.26
2024-03-02T19:58:32.443Z,4.75
2024-03-02T20:01:03.490Z,4.79
2024-03-02T20:03:33.966Z,5.78
2024-03-02T20:06:04.252Z,5.31
2024-03-02T20:08:34.620Z,4.81
2024-03-02T20:11:05.961Z,5.11
2024-03-02T20:13:36.998Z,4.41
2024-03-02T20:16:13.571Z,4.76
2024-03-02T20:18:43.879Z,5.77
2024-03-02T20:21:14.265Z,5.29
2024-03-02T20:23:44.750Z,6.48
2024-03-02T20:26:16.126Z,5.98
2024-03-02T20:28:47.150Z,5.77
2024-03-02T20:31:17.458Z,6.84
2024-03-02T20:33:51.991Z,6.93
2024-03-02T20:36:26.141Z,8.54
2024-03-02T20:38:56.359Z,8.80
2024-03-02T20:41:27.102Z,7.44
2024-03-02T20:43:57.286Z,7.36
2024-03-02T20:46:27.457Z,6.34
2024-03-02T20:48:58.545Z,6.03
2024-03-02T20:51:30.998Z,5.74
2024-03-02T20:54:02.440Z,4.71
2024-03-02T20:56:34.601Z,5.63
2024-03-02T20:59:06.059Z,5.33
2024-03-02T21:01:36.902Z,5.33
2024-03-02T21:04:07.248Z,5.62
2024-03-02T21:06:37.526Z,5.59
2024-03-02T21:09:07.746Z,5.63
2024-03-02T21:11:39.449Z,5.07
2024-03-02T21:14:09.911Z,5.18
2024-03-02T21:16:41.598Z,4.94
2024-03-02T21:19:13.105Z,4.80
2024-03-02T21:21:46.623Z,5.41
2024-03-02T21:24:16.814Z,4.42
2024-03-02T21:26:54.448Z,5.11
2024-03-02T21:29:25.780Z,5.50
2024-03-02T21:31:57.292Z,4.42
2024-03-02T21:34:27.494Z,4.36
2024-03-02T21:37:00.037Z,4.87
2024-03-02T21:39:39.111Z,5.66
2024-03-02T21:42:13.056Z,4.47
2024-03-02T21:44:43.431Z,4.30
2024-03-02T21:47:14.016Z,4.25
2024-03-02T21:49:44.503Z,5.68
2024-03-02T21:52:14.750Z,4.84
2024-03-02T21:54:47.436Z,5.40
2024-03-02T21:57:23.001Z,5.90
2024-03-02T21:59:53.176Z,5.08
2024-03-02T22:02:30.705Z,4.82
2024-03-02T22:05:00.985Z,4.56
2024-03-02T22:07:31.175Z,4.00
2024-03-02T22:10:01.967Z,4.51
2024-03-02T22:12:32.362Z,4.31
2024-03-02T22:15:02.620Z,4.85
2024-03-02T22:17:32.956Z,4.18
2024-03-02T22:20:03.848Z,3.86
2024-03-02T22:22:34.151Z,4.09
2024-03-02T22:25:05.594Z,4.08
2024-03-02T22:27:40.836Z,4.20
2024-03-02T22:30:13.041Z,3.73
2024-03-02T22:32:43.503Z,4.07
2024-03-02T22:35:13.771Z,4.06
2024-03-02T22:37:43.959Z,4.07
2024-03-02T22:40:14.250Z,3.97
2024-03-02T22:42:44.520Z,3.91
2024-03-02T22:45:14.812Z,4.72
2024-03-02T22:47:45.107Z,4.70
2024-03-02T22:50:15.357Z,4.68
2024-03-02T22:52:45.579Z,4.89
2024-03-02T22:55:15.976Z,4.59
2024-03-02T22:57:46.328Z,4.11
2024-03-02T23:00:35.041Z,4.53
2024-03-02T23:03:05.589Z,4.92
2024-03-02T23:05:35.764Z,5.09
2024-03-02T23:08:06.161Z,5.62
2024-03-02T23:10:36.388Z,5.50
2024-03-02T23:13:06.730Z,5.25
2024-03-02T23:15:37.027Z,5.48
2024-03-02T23:18:07.556Z,6.35
2024-03-02T23:20:37.739Z,5.75
2024-03-02T23:23:07.917Z,5.43
2024-03-02T23:25:38.101Z,6.43
2024-03-02T23:28:08.729Z,5.31
2024-03-02T23:30:39.243Z,5.68
2024-03-02T23:33:10.042Z,5.53
2024-03-02T23:35:40.518Z,5.43
2024-03-02T23:38:10.720Z,6.39
2024-03-02T23:40:59.938Z,6.17
2024-03-02T23:43:30.601Z,6.58
2024-03-02T23:46:01.097Z,5.39
2024-03-02T23:48:31.391Z,6.29
2024-03-02T23:51:02.850Z,6.44
2024-03-02T23:53:33.295Z,6.41
2024-03-02T23:56:14.934Z,6.35
2024-03-02T23:58:46.172Z,6.58
